Climatologie pour Saint-Brevin les Pins
Jour • Résumé pour juin 7, 2017 Système :  Métrique    Anglais   Mixte
« - 1 jour
+ 1 jour »
Jour Semaine Mois Année Personnalisé
  Maximum : Minimum : Moyenne :
Température sous abri : 18.6 °C 13.1 °C 15.6 °C
Point de rosée : 13.6 °C 9.2 °C 11.5 °C
Humidité : 88 % 65 % 76 %
Vitesse du vent : 20.9 km/h 0.0 km/h 9.2 km/h
Rafale : 33.8 km/h - -
Direction :- - West
Pression : 1021.6 hPa 1017.5 hPa -
Précipitations : 0.0 mm    
Historical Graphs
 
 
Tableau de données pour juin 7, 2017
Heure Tempé Pt rosée Pression Vent Vitesse Rafale Humidité Taux pluie (/hr) Soleil
00:00 13.8 °C 10.2 °C 1017.5 hPa WNW 19.3 km/h 27.4 km/h 79 % 0.0 mm 0 W/m2
00:10 13.7 °C 9.9 °C 1017.5 hPa West 17.7 km/h 27.4 km/h 78 % 0.0 mm 0 W/m2
00:15 13.8 °C 10.0 °C 1017.5 hPa WNW 14.5 km/h 24.1 km/h 78 % 0.0 mm 0 W/m2
00:20 13.8 °C 10.1 °C 1017.5 hPa NW 16.1 km/h 27.4 km/h 78 % 0.0 mm 0 W/m2
00:25 13.8 °C 9.9 °C 1017.5 hPa NW 11.3 km/h 27.4 km/h 77 % 0.0 mm 0 W/m2
00:30 13.9 °C 10.2 °C 1017.5 hPa NW 14.5 km/h 24.1 km/h 78 % 0.0 mm 0 W/m2
00:35 14.0 °C 10.0 °C 1017.5 hPa NW 14.5 km/h 29.0 km/h 77 % 0.0 mm 0 W/m2
00:40 13.9 °C 9.6 °C 1017.5 hPa WSW 16.1 km/h 29.0 km/h 75 % 0.0 mm 0 W/m2
00:45 14.0 °C 9.6 °C 1017.8 hPa WSW 20.9 km/h 29.0 km/h 75 % 0.0 mm 0 W/m2
00:50 13.9 °C 9.6 °C 1017.8 hPa WNW 8.0 km/h 33.8 km/h 75 % 0.0 mm 0 W/m2
00:55 14.0 °C 9.6 °C 1017.8 hPa West 11.3 km/h 33.8 km/h 75 % 0.0 mm 0 W/m2
01:00 14.1 °C 9.9 °C 1017.8 hPa NW 11.3 km/h 27.4 km/h 76 % 0.0 mm 0 W/m2
01:05 14.1 °C 10.1 °C 1017.8 hPa WNW 11.3 km/h 24.1 km/h 77 % 0.0 mm 0 W/m2
01:10 14.0 °C 9.8 °C 1017.8 hPa WNW 17.7 km/h 27.4 km/h 76 % 0.0 mm 0 W/m2
01:15 14.1 °C 9.7 °C 1017.8 hPa WNW 12.9 km/h 27.4 km/h 75 % 0.0 mm 0 W/m2
01:20 14.0 °C 9.6 °C 1017.8 hPa WSW 14.5 km/h 32.2 km/h 75 % 0.0 mm 0 W/m2
01:25 14.0 °C 9.8 °C 1017.8 hPa WNW 14.5 km/h 32.2 km/h 76 % 0.0 mm 0 W/m2
01:30 13.9 °C 9.9 °C 1017.8 hPa West 8.0 km/h 30.6 km/h 77 % 0.0 mm 0 W/m2
01:35 13.8 °C 10.1 °C 1017.8 hPa NNW 14.5 km/h 29.0 km/h 78 % 0.0 mm 0 W/m2
01:40 13.7 °C 10.1 °C 1017.8 hPa WNW 9.7 km/h 29.0 km/h 79 % 0.0 mm 0 W/m2
01:45 13.7 °C 10.1 °C 1017.8 hPa WNW 6.4 km/h 27.4 km/h 79 % 0.0 mm 0 W/m2
01:50 13.6 °C 10.2 °C 1017.8 hPa WNW 8.0 km/h 24.1 km/h 80 % 0.0 mm 0 W/m2
01:55 13.4 °C 10.1 °C 1017.8 hPa WNW 6.4 km/h 20.9 km/h 80 % 0.0 mm 0 W/m2
02:00 13.4 °C 10.0 °C 1017.8 hPa WNW 9.7 km/h 20.9 km/h 80 % 0.0 mm 0 W/m2
02:05 13.3 °C 9.8 °C 1018.2 hPa WNW 8.0 km/h 20.9 km/h 79 % 0.0 mm 0 W/m2
02:10 13.3 °C 9.8 °C 1018.2 hPa WNW 11.3 km/h 22.5 km/h 79 % 0.0 mm 0 W/m2
02:15 13.3 °C 10.0 °C 1018.2 hPa NW 11.3 km/h 22.5 km/h 80 % 0.0 mm 0 W/m2
02:20 13.4 °C 9.4 °C 1018.2 hPa NW 6.4 km/h 25.7 km/h 77 % 0.0 mm 0 W/m2
02:25 13.4 °C 9.2 °C 1018.2 hPa West 12.9 km/h 25.7 km/h 76 % 0.0 mm 0 W/m2
02:30 13.3 °C 9.2 °C 1018.2 hPa WNW 9.7 km/h 27.4 km/h 76 % 0.0 mm 0 W/m2
02:35 13.3 °C 9.6 °C 1018.2 hPa WNW 14.5 km/h 27.4 km/h 78 % 0.0 mm 0 W/m2
02:40 13.3 °C 9.8 °C 1018.2 hPa WNW 3.2 km/h 22.5 km/h 79 % 0.0 mm 0 W/m2
02:45 13.4 °C 9.6 °C 1018.2 hPa West 11.3 km/h 29.0 km/h 78 % 0.0 mm 0 W/m2
02:50 13.3 °C 9.8 °C 1018.2 hPa WNW 12.9 km/h 29.0 km/h 79 % 0.0 mm 0 W/m2
02:55 13.3 °C 9.7 °C 1018.2 hPa NW 14.5 km/h 29.0 km/h 79 % 0.0 mm 0 W/m2
03:00 13.3 °C 9.7 °C 1018.2 hPa WNW 14.5 km/h 25.7 km/h 79 % 0.0 mm 0 W/m2
03:05 13.3 °C 9.7 °C 1018.2 hPa WNW 9.7 km/h 25.7 km/h 79 % 0.0 mm 0 W/m2
03:10 13.3 °C 9.7 °C 1018.2 hPa West 20.9 km/h 25.7 km/h 79 % 0.0 mm 0 W/m2
03:15 13.3 °C 9.6 °C 1018.2 hPa West 8.0 km/h 25.7 km/h 78 % 0.0 mm 0 W/m2
03:20 13.4 °C 9.6 °C 1018.2 hPa West 12.9 km/h 25.7 km/h 78 % 0.0 mm 0 W/m2
03:25 13.3 °C 9.7 °C 1018.2 hPa WNW 19.3 km/h 22.5 km/h 79 % 0.0 mm 0 W/m2
03:30 13.3 °C 9.7 °C 1018.2 hPa NW 3.2 km/h 29.0 km/h 79 % 0.0 mm 0 W/m2
03:35 13.4 °C 9.6 °C 1018.2 hPa NW 11.3 km/h 29.0 km/h 78 % 0.0 mm 0 W/m2
03:40 13.4 °C 9.6 °C 1018.5 hPa WSW 17.7 km/h 27.4 km/h 78 % 0.0 mm 0 W/m2
03:45 13.4 °C 9.5 °C 1018.2 hPa WNW 16.1 km/h 25.7 km/h 77 % 0.0 mm 0 W/m2
03:50 13.4 °C 9.5 °C 1018.2 hPa WNW 8.0 km/h 25.7 km/h 77 % 0.0 mm 0 W/m2
03:55 13.4 °C 9.7 °C 1018.2 hPa West 16.1 km/h 25.7 km/h 78 % 0.0 mm 0 W/m2
04:00 13.6 °C 9.6 °C 1018.2 hPa WNW 17.7 km/h 25.7 km/h 77 % 0.0 mm 0 W/m2
04:05 13.7 °C 9.8 °C 1018.2 hPa NW 16.1 km/h 27.4 km/h 77 % 0.0 mm 0 W/m2
04:10 13.7 °C 9.7 °C 1018.2 hPa WNW 17.7 km/h 27.4 km/h 77 % 0.0 mm 0 W/m2
04:15 13.7 °C 9.8 °C 1018.2 hPa WNW 8.0 km/h 25.7 km/h 77 % 0.0 mm 0 W/m2
04:20 13.8 °C 10.0 °C 1018.2 hPa WNW 14.5 km/h 25.7 km/h 78 % 0.0 mm 0 W/m2
04:25 13.7 °C 9.9 °C 1018.2 hPa WNW 11.3 km/h 22.5 km/h 78 % 0.0 mm 0 W/m2
04:30 13.7 °C 9.9 °C 1018.2 hPa NW 6.4 km/h 25.7 km/h 78 % 0.0 mm 0 W/m2
04:35 13.7 °C 10.0 °C 1018.2 hPa WNW 9.7 km/h 25.7 km/h 78 % 0.0 mm 0 W/m2
04:40 13.8 °C 10.0 °C 1018.2 hPa WNW 17.7 km/h 25.7 km/h 78 % 0.0 mm 0 W/m2
04:45 13.8 °C 10.1 °C 1018.2 hPa NW 4.8 km/h 24.1 km/h 78 % 0.0 mm 0 W/m2
04:50 13.9 °C 10.3 °C 1018.5 hPa WNW 3.2 km/h 24.1 km/h 79 % 0.0 mm 0 W/m2
04:55 13.9 °C 10.4 °C 1018.5 hPa WNW 4.8 km/h 24.1 km/h 79 % 0.0 mm 0 W/m2
05:00 13.9 °C 10.4 °C 1018.5 hPa NW 19.3 km/h 24.1 km/h 79 % 0.0 mm 0 W/m2
05:05 14.0 °C 10.4 °C 1018.5 hPa West 8.0 km/h 25.7 km/h 79 % 0.0 mm 0 W/m2
05:10 14.0 °C 10.4 °C 1018.5 hPa WNW 8.0 km/h 25.7 km/h 79 % 0.0 mm 0 W/m2
05:20 13.9 °C 10.5 °C 1018.5 hPa WNW 19.3 km/h 22.5 km/h 80 % 0.0 mm 0 W/m2
05:25 13.9 °C 10.4 °C 1018.5 hPa WNW 6.4 km/h 22.5 km/h 79 % 0.0 mm 0 W/m2
05:30 13.9 °C 10.1 °C 1018.5 hPa West 16.1 km/h 22.5 km/h 78 % 0.0 mm 0 W/m2
05:35 13.8 °C 10.0 °C 1018.5 hPa West 12.9 km/h 20.9 km/h 78 % 0.0 mm 0 W/m2
05:40 13.7 °C 9.9 °C 1018.5 hPa WNW 8.0 km/h 24.1 km/h 78 % 0.0 mm 0 W/m2
05:45 13.7 °C 10.0 °C 1018.5 hPa NW 14.5 km/h 24.1 km/h 78 % 0.0 mm 0 W/m2
05:50 13.7 °C 10.0 °C 1018.5 hPa NNW 6.4 km/h 27.4 km/h 78 % 0.0 mm 0 W/m2
05:55 13.6 °C 9.8 °C 1018.8 hPa WNW 16.1 km/h 27.4 km/h 78 % 0.0 mm 0 W/m2
06:00 13.5 °C 9.9 °C 1018.8 hPa WNW 17.7 km/h 25.7 km/h 79 % 0.0 mm 0 W/m2
06:05 13.4 °C 9.9 °C 1018.8 hPa WNW 8.0 km/h 22.5 km/h 79 % 0.0 mm 0 W/m2
06:10 13.4 °C 10.0 °C 1018.8 hPa NW 8.0 km/h 20.9 km/h 80 % 0.0 mm 0 W/m2
06:15 13.3 °C 10.1 °C 1018.8 hPa WNW 6.4 km/h 17.7 km/h 81 % 0.0 mm 0 W/m2
06:20 13.4 °C 10.1 °C 1018.8 hPa WNW 6.4 km/h 19.3 km/h 80 % 0.0 mm 5 W/m2
06:25 13.3 °C 10.0 °C 1018.8 hPa WNW 11.3 km/h 19.3 km/h 80 % 0.0 mm 7 W/m2
06:30 13.3 °C 10.1 °C 1018.8 hPa WNW 6.4 km/h 16.1 km/h 81 % 0.0 mm 9 W/m2
06:35 13.1 °C 10.1 °C 1018.8 hPa WNW 9.7 km/h 16.1 km/h 82 % 0.0 mm 9 W/m2
06:40 13.1 °C 10.1 °C 1018.8 hPa NW 8.0 km/h 17.7 km/h 82 % 0.0 mm 11 W/m2
06:45 13.1 °C 10.1 °C 1018.8 hPa West 9.7 km/h 17.7 km/h 82 % 0.0 mm 11 W/m2
06:50 13.1 °C 10.2 °C 1019.2 hPa NW 12.9 km/h 16.1 km/h 83 % 0.0 mm 16 W/m2
06:55 13.2 °C 10.3 °C 1019.2 hPa WNW 9.7 km/h 17.7 km/h 83 % 0.0 mm 42 W/m2
07:00 13.3 °C 10.5 °C 1019.2 hPa West 6.4 km/h 17.7 km/h 83 % 0.0 mm 46 W/m2
07:05 13.4 °C 10.4 °C 1019.2 hPa WNW 6.4 km/h 16.1 km/h 82 % 0.0 mm 37 W/m2
07:10 13.5 °C 10.5 °C 1019.2 hPa WNW 4.8 km/h 19.3 km/h 82 % 0.0 mm 35 W/m2
07:15 13.4 °C 10.4 °C 1019.2 hPa NW 9.7 km/h 20.9 km/h 82 % 0.0 mm 53 W/m2
07:20 13.6 °C 10.6 °C 1019.2 hPa NW 11.3 km/h 20.9 km/h 82 % 0.0 mm 62 W/m2
07:25 13.8 °C 10.6 °C 1019.2 hPa WNW 12.9 km/h 19.3 km/h 81 % 0.0 mm 67 W/m2
07:30 13.9 °C 10.5 °C 1019.2 hPa WNW 9.7 km/h 19.3 km/h 80 % 0.0 mm 72 W/m2
07:35 14.0 °C 10.6 °C 1019.5 hPa WNW 6.4 km/h 17.7 km/h 80 % 0.0 mm 63 W/m2
07:40 13.9 °C 10.5 °C 1019.5 hPa WNW 8.0 km/h 17.7 km/h 80 % 0.0 mm 58 W/m2
07:45 13.9 °C 10.5 °C 1019.5 hPa WNW 4.8 km/h 17.7 km/h 80 % 0.0 mm 58 W/m2
07:50 14.1 °C 10.5 °C 1019.5 hPa WNW 6.4 km/h 17.7 km/h 79 % 0.0 mm 102 W/m2
07:55 14.2 °C 10.6 °C 1019.5 hPa NW 6.4 km/h 17.7 km/h 79 % 0.0 mm 183 W/m2
08:00 14.2 °C 10.6 °C 1019.9 hPa WNW 12.9 km/h 17.7 km/h 79 % 0.0 mm 163 W/m2
08:05 14.3 °C 10.7 °C 1019.9 hPa WNW 6.4 km/h 17.7 km/h 79 % 0.0 mm 185 W/m2
08:10 14.3 °C 10.5 °C 1019.9 hPa NW 11.3 km/h 16.1 km/h 78 % 0.0 mm 204 W/m2
08:15 14.6 °C 10.6 °C 1019.9 hPa WNW 11.3 km/h 16.1 km/h 77 % 0.0 mm 265 W/m2
08:20 14.7 °C 10.7 °C 1019.9 hPa NW 8.0 km/h 20.9 km/h 77 % 0.0 mm 279 W/m2
08:25 14.8 °C 10.8 °C 1019.9 hPa WNW 3.2 km/h 22.5 km/h 77 % 0.0 mm 290 W/m2
08:30 14.9 °C 10.9 °C 1019.9 hPa WNW 8.0 km/h 22.5 km/h 77 % 0.0 mm 315 W/m2
08:35 15.2 °C 10.8 °C 1019.9 hPa WNW 9.7 km/h 19.3 km/h 75 % 0.0 mm 327 W/m2
08:40 15.3 °C 10.7 °C 1019.9 hPa WNW 9.7 km/h 20.9 km/h 74 % 0.0 mm 334 W/m2
08:45 15.3 °C 10.9 °C 1020.2 hPa NW 11.3 km/h 20.9 km/h 75 % 0.0 mm 329 W/m2
08:50 15.3 °C 10.7 °C 1020.2 hPa West 8.0 km/h 20.9 km/h 74 % 0.0 mm 320 W/m2
08:55 15.4 °C 10.8 °C 1020.2 hPa WNW 14.5 km/h 20.9 km/h 74 % 0.0 mm 388 W/m2
09:00 15.7 °C 11.0 °C 1020.2 hPa West 12.9 km/h 19.3 km/h 74 % 0.0 mm 404 W/m2
09:05 15.8 °C 10.9 °C 1020.2 hPa NW 4.8 km/h 17.7 km/h 73 % 0.0 mm 330 W/m2
09:10 15.9 °C 11.3 °C 1020.2 hPa West 12.9 km/h 24.1 km/h 74 % 0.0 mm 459 W/m2
09:15 15.9 °C 11.3 °C 1020.2 hPa WNW 9.7 km/h 24.1 km/h 74 % 0.0 mm 443 W/m2
09:20 15.8 °C 10.8 °C 1020.2 hPa West 4.8 km/h 20.9 km/h 72 % 0.0 mm 323 W/m2
09:25 15.7 °C 10.9 °C 1019.9 hPa WNW 11.3 km/h 20.9 km/h 73 % 0.0 mm 381 W/m2
09:30 15.8 °C 11.6 °C 1020.5 hPa WNW 12.9 km/h 20.9 km/h 76 % 0.0 mm 503 W/m2
09:35 16.1 °C 11.6 °C 1020.2 hPa WSW 12.9 km/h 19.3 km/h 75 % 0.0 mm 250 W/m2
09:40 16.2 °C 11.7 °C 1020.2 hPa NW 4.8 km/h 19.3 km/h 75 % 0.0 mm 633 W/m2
09:45 16.3 °C 11.2 °C 1020.2 hPa Calm   19.3 km/h 72 % 0.0 mm 652 W/m2
09:50 16.2 °C 11.5 °C 1020.5 hPa WNW 6.4 km/h 19.3 km/h 74 % 0.0 mm 253 W/m2
09:55 15.9 °C 11.3 °C 1020.5 hPa West 9.7 km/h 17.7 km/h 74 % 0.0 mm 309 W/m2
10:00 15.8 °C 11.4 °C 1020.5 hPa West 16.1 km/h 19.3 km/h 75 % 0.0 mm 290 W/m2
10:05 15.8 °C 11.4 °C 1020.9 hPa West 11.3 km/h 20.9 km/h 75 % 0.0 mm 297 W/m2
10:10 16.2 °C 11.8 °C 1020.5 hPa NW 3.2 km/h 20.9 km/h 75 % 0.0 mm 805 W/m2
10:15 16.2 °C 11.3 °C 1020.9 hPa NW 17.7 km/h 17.7 km/h 73 % 0.0 mm 237 W/m2
10:25 15.4 °C 12.2 °C 1020.9 hPa WNW 8.0 km/h 22.5 km/h 81 % 0.0 mm 288 W/m2
10:30 15.4 °C 12.2 °C 1020.9 hPa West 14.5 km/h 22.5 km/h 81 % 0.0 mm 230 W/m2
10:35 15.7 °C 12.2 °C 1020.9 hPa WSW 11.3 km/h 17.7 km/h 80 % 0.0 mm 657 W/m2
10:40 16.3 °C 12.1 °C 1020.9 hPa WSW 8.0 km/h 17.7 km/h 76 % 0.0 mm 700 W/m2
10:45 16.9 °C 12.5 °C 1020.9 hPa WNW 9.7 km/h 17.7 km/h 75 % 0.0 mm 680 W/m2
10:50 16.6 °C 11.7 °C 1020.9 hPa SW 6.4 km/h 19.3 km/h 73 % 0.0 mm 668 W/m2
10:55 16.7 °C 12.3 °C 1021.2 hPa SW 19.3 km/h 22.5 km/h 75 % 0.0 mm 677 W/m2
11:00 16.8 °C 12.2 °C 1021.2 hPa WSW 11.3 km/h 22.5 km/h 74 % 0.0 mm 624 W/m2
11:05 16.8 °C 12.4 °C 1021.2 hPa West 1.6 km/h 19.3 km/h 75 % 0.0 mm 724 W/m2
11:10 16.8 °C 11.7 °C 1020.9 hPa West 12.9 km/h 20.9 km/h 72 % 0.0 mm 712 W/m2
11:15 17.2 °C 12.3 °C 1020.9 hPa NW 8.0 km/h 20.9 km/h 73 % 0.0 mm 693 W/m2
11:20 17.2 °C 11.6 °C 1020.9 hPa West 6.4 km/h 19.3 km/h 70 % 0.0 mm 735 W/m2
11:25 17.1 °C 12.0 °C 1020.9 hPa WSW 3.2 km/h 19.3 km/h 72 % 0.0 mm 689 W/m2
11:30 17.4 °C 12.1 °C 1020.9 hPa WNW 19.3 km/h 22.5 km/h 71 % 0.0 mm 752 W/m2
11:35 16.9 °C 11.9 °C 1020.9 hPa West 9.7 km/h 22.5 km/h 72 % 0.0 mm 758 W/m2
11:40 17.3 °C 12.4 °C 1021.2 hPa West 11.3 km/h 19.3 km/h 73 % 0.0 mm 701 W/m2
11:45 17.9 °C 12.8 °C 1021.2 hPa WSW 12.9 km/h 17.7 km/h 72 % 0.0 mm 782 W/m2
11:50 17.4 °C 11.7 °C 1021.2 hPa West 8.0 km/h 24.1 km/h 69 % 0.0 mm 821 W/m2
12:00 17.4 °C 10.8 °C 1021.2 hPa West 19.3 km/h 20.9 km/h 65 % 0.0 mm 770 W/m2
12:05 17.7 °C 12.1 °C 1021.2 hPa WSW 11.3 km/h 20.9 km/h 70 % 0.0 mm 807 W/m2
12:10 18.3 °C 12.0 °C 1021.6 hPa West 12.9 km/h 19.3 km/h 67 % 0.0 mm 853 W/m2
12:15 17.7 °C 11.5 °C 1021.2 hPa WSW 8.0 km/h 22.5 km/h 67 % 0.0 mm 847 W/m2
12:20 17.5 °C 11.3 °C 1021.2 hPa WNW 9.7 km/h 22.5 km/h 67 % 0.0 mm 856 W/m2
12:25 17.4 °C 11.4 °C 1021.6 hPa West 6.4 km/h 19.3 km/h 68 % 0.0 mm 830 W/m2
12:30 17.9 °C 12.4 °C 1021.6 hPa WSW 6.4 km/h 19.3 km/h 70 % 0.0 mm 877 W/m2
12:35 17.9 °C 11.4 °C 1021.6 hPa WSW 8.0 km/h 20.9 km/h 66 % 0.0 mm 858 W/m2
12:40 17.8 °C 12.1 °C 1021.6 hPa WSW 16.1 km/h 20.9 km/h 69 % 0.0 mm 882 W/m2
12:45 17.6 °C 11.8 °C 1021.6 hPa WNW 6.4 km/h 20.9 km/h 69 % 0.0 mm 856 W/m2
12:50 17.9 °C 12.4 °C 1021.6 hPa WSW 9.7 km/h 22.5 km/h 70 % 0.0 mm 877 W/m2
12:55 18.2 °C 12.2 °C 1021.6 hPa WSW 16.1 km/h 25.7 km/h 68 % 0.0 mm 889 W/m2
13:00 18.2 °C 12.0 °C 1021.6 hPa West 6.4 km/h 25.7 km/h 67 % 0.0 mm 893 W/m2
13:05 17.9 °C 12.8 °C 1021.6 hPa WSW 11.3 km/h 22.5 km/h 72 % 0.0 mm 898 W/m2
13:10 18.6 °C 13.4 °C 1021.6 hPa West 19.3 km/h 24.1 km/h 72 % 0.0 mm 923 W/m2
13:15 18.3 °C 12.5 °C 1021.6 hPa NW 6.4 km/h 24.1 km/h 69 % 0.0 mm 912 W/m2
13:20 18.3 °C 12.1 °C 1021.6 hPa WSW 14.5 km/h 24.1 km/h 67 % 0.0 mm 949 W/m2
13:25 18.1 °C 12.1 °C 1021.6 hPa WSW 3.2 km/h 24.1 km/h 68 % 0.0 mm 956 W/m2
13:30 18.1 °C 12.1 °C 1021.6 hPa West 12.9 km/h 22.5 km/h 68 % 0.0 mm 904 W/m2
13:35 18.2 °C 12.4 °C 1021.6 hPa West 12.9 km/h 17.7 km/h 69 % 0.0 mm 907 W/m2
13:40 18.1 °C 12.1 °C 1021.2 hPa WSW 14.5 km/h 17.7 km/h 68 % 0.0 mm 889 W/m2
13:45 18.6 °C 12.8 °C 1021.2 hPa WSW 4.8 km/h 20.9 km/h 69 % 0.0 mm 911 W/m2
13:50 18.1 °C 12.3 °C 1021.2 hPa WNW 4.8 km/h 20.9 km/h 69 % 0.0 mm 914 W/m2
13:55 18.5 °C 12.5 °C 1021.2 hPa West 9.7 km/h 19.3 km/h 68 % 0.0 mm 888 W/m2
14:00 18.3 °C 12.7 °C 1021.2 hPa NW 9.7 km/h 19.3 km/h 70 % 0.0 mm 694 W/m2
14:05 18.3 °C 12.8 °C 1021.2 hPa WSW 4.8 km/h 19.3 km/h 70 % 0.0 mm 816 W/m2
14:10 18.6 °C 12.8 °C 1021.2 hPa WNW 8.0 km/h 16.1 km/h 69 % 0.0 mm 919 W/m2
14:15 18.4 °C 12.6 °C 1021.2 hPa WNW 14.5 km/h 20.9 km/h 69 % 0.0 mm 916 W/m2
14:20 18.2 °C 12.0 °C 1021.2 hPa WSW 9.7 km/h 20.9 km/h 67 % 0.0 mm 802 W/m2
14:25 18.4 °C 13.1 °C 1021.2 hPa WSW 6.4 km/h 20.9 km/h 71 % 0.0 mm 902 W/m2
14:30 18.2 °C 12.9 °C 1021.2 hPa Calm   20.9 km/h 71 % 0.0 mm 947 W/m2
14:35 18.5 °C 12.7 °C 1021.2 hPa WSW 11.3 km/h 20.9 km/h 69 % 0.0 mm 847 W/m2
14:40 18.3 °C 12.3 °C 1021.2 hPa WSW 4.8 km/h 20.9 km/h 68 % 0.0 mm 967 W/m2
14:45 18.0 °C 11.8 °C 1020.9 hPa SW 12.9 km/h 22.5 km/h 67 % 0.0 mm 919 W/m2
14:50 18.3 °C 12.7 °C 1020.9 hPa West 6.4 km/h 22.5 km/h 70 % 0.0 mm 928 W/m2
14:55 18.1 °C 12.1 °C 1021.2 hPa West 6.4 km/h 22.5 km/h 68 % 0.0 mm 622 W/m2
15:00 17.9 °C 12.1 °C 1021.2 hPa WSW 8.0 km/h 25.7 km/h 69 % 0.0 mm 888 W/m2
15:05 18.1 °C 12.5 °C 1021.2 hPa WSW 17.7 km/h 25.7 km/h 70 % 0.0 mm 893 W/m2
15:10 18.3 °C 12.3 °C 1021.2 hPa WSW 11.3 km/h 25.7 km/h 68 % 0.0 mm 877 W/m2
15:15 17.9 °C 11.9 °C 1021.2 hPa WSW 12.9 km/h 22.5 km/h 68 % 0.0 mm 826 W/m2
15:20 17.7 °C 12.0 °C 1021.2 hPa WNW 14.5 km/h 24.1 km/h 69 % 0.0 mm 800 W/m2
15:25 18.0 °C 12.2 °C 1021.2 hPa West 12.9 km/h 24.1 km/h 69 % 0.0 mm 865 W/m2
15:30 18.4 °C 13.1 °C 1021.2 hPa WSW 16.1 km/h 20.9 km/h 71 % 0.0 mm 851 W/m2
15:35 18.4 °C 12.0 °C 1021.2 hPa West 14.5 km/h 20.9 km/h 66 % 0.0 mm 858 W/m2
15:40 18.4 °C 13.5 °C 1020.9 hPa West 8.0 km/h 20.9 km/h 73 % 0.0 mm 840 W/m2
15:45 17.9 °C 12.4 °C 1020.9 hPa WSW 8.0 km/h 20.9 km/h 70 % 0.0 mm 847 W/m2
15:50 18.2 °C 12.4 °C 1020.9 hPa SW 9.7 km/h 19.3 km/h 69 % 0.0 mm 791 W/m2
15:55 18.2 °C 12.9 °C 1020.9 hPa West 16.1 km/h 22.5 km/h 71 % 0.0 mm 770 W/m2
16:00 18.2 °C 12.8 °C 1020.9 hPa West 8.0 km/h 22.5 km/h 71 % 0.0 mm 805 W/m2
16:05 18.3 °C 12.9 °C 1020.9 hPa NNW 6.4 km/h 19.3 km/h 71 % 0.0 mm 816 W/m2
16:10 17.8 °C 12.3 °C 1020.9 hPa SSW 4.8 km/h 22.5 km/h 70 % 0.0 mm 772 W/m2
16:15 17.8 °C 12.3 °C 1020.9 hPa WNW 9.7 km/h 22.5 km/h 70 % 0.0 mm 643 W/m2
16:20 17.7 °C 12.8 °C 1020.9 hPa SW 11.3 km/h 20.9 km/h 73 % 0.0 mm 795 W/m2
16:25 17.9 °C 12.8 °C 1020.9 hPa West 8.0 km/h 20.9 km/h 72 % 0.0 mm 800 W/m2
16:35 18.1 °C 12.3 °C 1020.9 hPa WSW 8.0 km/h 20.9 km/h 69 % 0.0 mm 617 W/m2
16:40 18.0 °C 12.4 °C 1020.9 hPa WSW 11.3 km/h 22.5 km/h 70 % 0.0 mm 766 W/m2
16:45 17.7 °C 12.6 °C 1020.9 hPa WNW 4.8 km/h 22.5 km/h 72 % 0.0 mm 578 W/m2
16:50 18.0 °C 12.7 °C 1020.9 hPa SSW 8.0 km/h 22.5 km/h 71 % 0.0 mm 831 W/m2
16:55 18.3 °C 12.5 °C 1020.9 hPa West 6.4 km/h 19.3 km/h 69 % 0.0 mm 598 W/m2
17:00 17.8 °C 12.4 °C 1020.9 hPa WSW 8.0 km/h 20.9 km/h 71 % 0.0 mm 239 W/m2
17:05 17.3 °C 12.2 °C 1020.9 hPa West 12.9 km/h 20.9 km/h 72 % 0.0 mm 225 W/m2
17:10 16.8 °C 12.1 °C 1020.9 hPa WSW 4.8 km/h 17.7 km/h 74 % 0.0 mm 234 W/m2
17:15 16.8 °C 12.5 °C 1020.9 hPa WSW 4.8 km/h 17.7 km/h 76 % 0.0 mm 316 W/m2
17:20 16.8 °C 12.3 °C 1020.9 hPa SW 6.4 km/h 16.1 km/h 75 % 0.0 mm 234 W/m2
17:25 16.8 °C 12.7 °C 1020.9 hPa WSW 6.4 km/h 16.1 km/h 77 % 0.0 mm 287 W/m2
17:30 17.2 °C 13.3 °C 1020.9 hPa SSW 4.8 km/h 16.1 km/h 78 % 0.0 mm 527 W/m2
17:35 17.6 °C 12.9 °C 1020.9 hPa WSW 3.2 km/h 20.9 km/h 74 % 0.0 mm 728 W/m2
17:40 17.7 °C 13.4 °C 1020.9 hPa WSW 9.7 km/h 20.9 km/h 76 % 0.0 mm 388 W/m2
17:45 17.3 °C 13.3 °C 1020.9 hPa WSW 9.7 km/h 20.9 km/h 77 % 0.0 mm 631 W/m2
17:50 17.6 °C 13.3 °C 1020.5 hPa SW 12.9 km/h 20.9 km/h 76 % 0.0 mm 596 W/m2
17:55 17.7 °C 13.4 °C 1020.5 hPa WNW 9.7 km/h 20.9 km/h 76 % 0.0 mm 603 W/m2
18:05 17.7 °C 13.6 °C 1020.5 hPa WSW 6.4 km/h 20.9 km/h 77 % 0.0 mm 146 W/m2
18:10 17.3 °C 13.1 °C 1020.5 hPa West 17.7 km/h 22.5 km/h 76 % 0.0 mm 573 W/m2
18:15 17.6 °C 13.1 °C 1020.5 hPa West 12.9 km/h 22.5 km/h 75 % 0.0 mm 399 W/m2
18:20 17.3 °C 12.9 °C 1020.5 hPa WSW 6.4 km/h 22.5 km/h 75 % 0.0 mm 531 W/m2
18:25 17.3 °C 12.6 °C 1020.5 hPa WSW 12.9 km/h 22.5 km/h 74 % 0.0 mm 508 W/m2
18:30 17.4 °C 12.9 °C 1020.5 hPa WSW 17.7 km/h 22.5 km/h 75 % 0.0 mm 417 W/m2
18:35 17.4 °C 13.3 °C 1020.2 hPa SW 8.0 km/h 20.9 km/h 77 % 0.0 mm 492 W/m2
18:40 17.6 °C 12.9 °C 1020.2 hPa WNW 4.8 km/h 19.3 km/h 74 % 0.0 mm 399 W/m2
18:45 17.4 °C 12.8 °C 1020.2 hPa WSW 4.8 km/h 19.3 km/h 74 % 0.0 mm 413 W/m2
18:50 17.7 °C 13.0 °C 1020.2 hPa West 12.9 km/h 20.9 km/h 74 % 0.0 mm 438 W/m2
19:00 17.4 °C 12.7 °C 1020.2 hPa WSW 9.7 km/h 19.3 km/h 74 % 0.0 mm 410 W/m2
19:05 17.6 °C 12.7 °C 1020.2 hPa WSW 9.7 km/h 19.3 km/h 73 % 0.0 mm 227 W/m2
19:10 17.2 °C 12.9 °C 1019.9 hPa WSW 4.8 km/h 20.9 km/h 76 % 0.0 mm 388 W/m2
19:15 17.5 °C 13.0 °C 1020.2 hPa WSW 4.8 km/h 20.9 km/h 75 % 0.0 mm 338 W/m2
19:20 17.2 °C 12.3 °C 1019.9 hPa WSW 8.0 km/h 22.5 km/h 73 % 0.0 mm 334 W/m2
19:25 16.8 °C 12.3 °C 1019.9 hPa WSW 8.0 km/h 22.5 km/h 75 % 0.0 mm 253 W/m2
19:30 16.9 °C 12.8 °C 1019.9 hPa West 9.7 km/h 19.3 km/h 77 % 0.0 mm 163 W/m2
19:35 16.7 °C 12.4 °C 1019.9 hPa SSW 1.6 km/h 17.7 km/h 76 % 0.0 mm 105 W/m2
19:40 16.3 °C 12.3 °C 1019.9 hPa West 9.7 km/h 19.3 km/h 77 % 0.0 mm 83 W/m2
19:45 16.2 °C 12.5 °C 1019.9 hPa WNW 3.2 km/h 19.3 km/h 79 % 0.0 mm 113 W/m2
19:50 16.1 °C 12.5 °C 1019.9 hPa WSW 14.5 km/h 17.7 km/h 79 % 0.0 mm 116 W/m2
19:55 16.1 °C 12.6 °C 1019.9 hPa WSW 3.2 km/h 17.7 km/h 80 % 0.0 mm 111 W/m2
20:00 16.1 °C 12.7 °C 1019.9 hPa West 8.0 km/h 16.1 km/h 80 % 0.0 mm 137 W/m2
20:05 16.1 °C 12.7 °C 1019.9 hPa Calm   12.9 km/h 80 % 0.0 mm 128 W/m2
20:10 16.2 °C 12.7 °C 1019.9 hPa WSW 3.2 km/h 16.1 km/h 80 % 0.0 mm 93 W/m2
20:15 16.1 °C 12.8 °C 1019.9 hPa SW 4.8 km/h 16.1 km/h 81 % 0.0 mm 114 W/m2
20:20 16.2 °C 12.9 °C 1019.9 hPa Calm   11.3 km/h 81 % 0.0 mm 95 W/m2
20:25 16.1 °C 13.0 °C 1019.5 hPa WSW 14.5 km/h 14.5 km/h 82 % 0.0 mm 77 W/m2
20:30 15.9 °C 12.7 °C 1019.5 hPa South 1.6 km/h 16.1 km/h 81 % 0.0 mm 84 W/m2
20:35 15.9 °C 12.7 °C 1019.5 hPa WSW 4.8 km/h 16.1 km/h 81 % 0.0 mm 77 W/m2
20:40 15.9 °C 12.6 °C 1019.5 hPa West 4.8 km/h 14.5 km/h 81 % 0.0 mm 67 W/m2
20:45 15.8 °C 12.3 °C 1019.5 hPa SSW 4.8 km/h 12.9 km/h 80 % 0.0 mm 69 W/m2
20:50 15.8 °C 12.3 °C 1019.5 hPa WSW 8.0 km/h 14.5 km/h 80 % 0.0 mm 65 W/m2
20:55 15.8 °C 12.3 °C 1019.5 hPa SSW 4.8 km/h 14.5 km/h 80 % 0.0 mm 60 W/m2
21:00 15.8 °C 12.5 °C 1019.2 hPa WSW 1.6 km/h 11.3 km/h 81 % 0.0 mm 54 W/m2
21:05 15.7 °C 12.5 °C 1019.2 hPa SSW 9.7 km/h 11.3 km/h 81 % 0.0 mm 47 W/m2
21:10 15.8 °C 12.5 °C 1019.2 hPa SSW 3.2 km/h 12.9 km/h 81 % 0.0 mm 40 W/m2
21:15 15.7 °C 12.7 °C 1019.5 hPa Calm   12.9 km/h 82 % 0.0 mm 35 W/m2
21:20 15.6 °C 12.5 °C 1019.2 hPa SSW 11.3 km/h 14.5 km/h 82 % 0.0 mm 32 W/m2
21:25 15.6 °C 12.5 °C 1019.2 hPa SW 4.8 km/h 14.5 km/h 82 % 0.0 mm 30 W/m2
21:30 15.5 °C 12.4 °C 1019.2 hPa SW 8.0 km/h 12.9 km/h 82 % 0.0 mm 26 W/m2
21:35 15.4 °C 12.4 °C 1019.2 hPa Calm   12.9 km/h 82 % 0.0 mm 21 W/m2
21:40 15.3 °C 12.5 °C 1019.2 hPa WSW 6.4 km/h 12.9 km/h 83 % 0.0 mm 14 W/m2
21:45 15.3 °C 12.5 °C 1019.5 hPa WSW 3.2 km/h 12.9 km/h 83 % 0.0 mm 11 W/m2
21:50 15.3 °C 12.4 °C 1019.2 hPa SW 8.0 km/h 12.9 km/h 83 % 0.0 mm 7 W/m2
21:55 15.3 °C 12.4 °C 1019.2 hPa SW 4.8 km/h 12.9 km/h 83 % 0.0 mm 5 W/m2
22:00 15.2 °C 12.4 °C 1019.2 hPa WSW 1.6 km/h 11.3 km/h 83 % 0.0 mm 0 W/m2
22:05 15.1 °C 12.2 °C 1019.2 hPa SSW 8.0 km/h 9.7 km/h 83 % 0.0 mm 0 W/m2
22:10 15.1 °C 12.2 °C 1019.2 hPa SSW 4.8 km/h 9.7 km/h 83 % 0.0 mm 0 W/m2
22:15 15.0 °C 12.3 °C 1019.2 hPa SW 1.6 km/h 11.3 km/h 84 % 0.0 mm 0 W/m2
22:20 15.0 °C 12.1 °C 1019.2 hPa South 4.8 km/h 11.3 km/h 83 % 0.0 mm 0 W/m2
22:25 14.9 °C 12.0 °C 1019.2 hPa SSW 4.8 km/h 11.3 km/h 83 % 0.0 mm 0 W/m2
22:30 14.9 °C 12.0 °C 1019.2 hPa SSW 6.4 km/h 12.9 km/h 83 % 0.0 mm 0 W/m2
22:35 14.8 °C 12.2 °C 1019.2 hPa Calm   12.9 km/h 84 % 0.0 mm 0 W/m2
22:40 14.9 °C 12.2 °C 1019.2 hPa SSW 4.8 km/h 11.3 km/h 84 % 0.0 mm 0 W/m2
22:45 14.9 °C 12.2 °C 1019.2 hPa Calm   11.3 km/h 84 % 0.0 mm 0 W/m2
22:50 14.8 °C 12.1 °C 1019.2 hPa SSW 3.2 km/h 8.0 km/h 84 % 0.0 mm 0 W/m2
23:00 14.6 °C 12.2 °C 1019.2 hPa SSW 4.8 km/h 11.3 km/h 86 % 0.0 mm 0 W/m2
23:05 14.6 °C 12.1 °C 1018.8 hPa South 1.6 km/h 11.3 km/h 85 % 0.0 mm 0 W/m2
23:10 14.4 °C 12.1 °C 1018.8 hPa South 4.8 km/h 8.0 km/h 86 % 0.0 mm 0 W/m2
23:20 14.3 °C 12.0 °C 1018.8 hPa South 4.8 km/h 8.0 km/h 86 % 0.0 mm 0 W/m2
23:25 14.2 °C 11.9 °C 1018.8 hPa South 1.6 km/h 6.4 km/h 86 % 0.0 mm 0 W/m2
23:30 14.2 °C 12.0 °C 1018.8 hPa South 1.6 km/h 6.4 km/h 87 % 0.0 mm 0 W/m2
23:35 14.1 °C 11.8 °C 1018.8 hPa Calm   6.4 km/h 86 % 0.0 mm 0 W/m2
23:40 13.9 °C 11.8 °C 1018.8 hPa Calm   6.4 km/h 87 % 0.0 mm 0 W/m2
23:45 13.8 °C 11.7 °C 1018.8 hPa Calm   6.4 km/h 87 % 0.0 mm 0 W/m2
23:50 13.8 °C 11.9 °C 1018.8 hPa South 3.2 km/h 6.4 km/h 88 % 0.0 mm 0 W/m2
23:55 13.9 °C 11.9 °C 1018.8 hPa South 1.6 km/h 6.4 km/h 88 % 0.0 mm 0 W/m2
Avec l'autorisation de Weather Underground - 1.75 mb